sensor_id;sensor_type;location;lat;lon;timestamp;P1;durP1;ratioP1;P2;durP2;ratioP2
59161;SDS011;44942;48.936;8.260;2023-12-20T00:04:00;4.60;;;3.20;;
59161;SDS011;44942;48.936;8.260;2023-12-20T00:09:01;4.30;;;3.00;;
59161;SDS011;44942;48.936;8.260;2023-12-20T00:14:02;4.20;;;2.75;;
59161;SDS011;44942;48.936;8.260;2023-12-20T00:19:02;4.60;;;2.70;;
59161;SDS011;44942;48.936;8.260;2023-12-20T00:24:03;4.50;;;2.57;;
59161;SDS011;44942;48.936;8.260;2023-12-20T00:29:04;3.00;;;2.50;;
59161;SDS011;44942;48.936;8.260;2023-12-20T00:34:05;3.97;;;2.77;;
59161;SDS011;44942;48.936;8.260;2023-12-20T00:39:05;4.27;;;2.77;;
59161;SDS011;44942;48.936;8.260;2023-12-20T00:44:07;3.80;;;2.78;;
59161;SDS011;44942;48.936;8.260;2023-12-20T00:49:07;3.43;;;2.37;;
59161;SDS011;44942;48.936;8.260;2023-12-20T00:54:08;4.17;;;2.37;;
59161;SDS011;44942;48.936;8.260;2023-12-20T00:59:09;3.28;;;2.25;;
59161;SDS011;44942;48.936;8.260;2023-12-20T01:04:09;2.47;;;2.03;;
59161;SDS011;44942;48.936;8.260;2023-12-20T01:09:10;2.83;;;2.50;;
59161;SDS011;44942;48.936;8.260;2023-12-20T01:14:11;3.47;;;2.17;;
59161;SDS011;44942;48.936;8.260;2023-12-20T01:19:12;2.33;;;2.05;;
59161;SDS011;44942;48.936;8.260;2023-12-20T01:24:13;2.85;;;1.90;;
59161;SDS011;44942;48.936;8.260;2023-12-20T01:29:14;2.63;;;2.23;;
59161;SDS011;44942;48.936;8.260;2023-12-20T01:34:17;3.55;;;2.33;;
59161;SDS011;44942;48.936;8.260;2023-12-20T01:39:18;3.38;;;1.98;;
59161;SDS011;44942;48.936;8.260;2023-12-20T01:44:18;2.83;;;1.70;;
59161;SDS011;44942;48.936;8.260;2023-12-20T01:49:19;2.57;;;2.10;;
59161;SDS011;44942;48.936;8.260;2023-12-20T01:54:20;3.15;;;1.88;;
59161;SDS011;44942;48.936;8.260;2023-12-20T01:59:21;2.63;;;2.00;;
59161;SDS011;44942;48.936;8.260;2023-12-20T02:04:21;2.92;;;2.00;;
59161;SDS011;44942;48.936;8.260;2023-12-20T02:09:22;2.42;;;1.92;;
59161;SDS011;44942;48.936;8.260;2023-12-20T02:14:23;2.77;;;1.90;;
59161;SDS011;44942;48.936;8.260;2023-12-20T02:19:24;2.73;;;1.70;;
59161;SDS011;44942;48.936;8.260;2023-12-20T02:24:24;2.40;;;1.70;;
59161;SDS011;44942;48.936;8.260;2023-12-20T02:29:25;2.73;;;1.60;;
59161;SDS011;44942;48.936;8.260;2023-12-20T02:39:27;2.20;;;1.63;;
59161;SDS011;44942;48.936;8.260;2023-12-20T02:44:27;2.50;;;1.87;;
59161;SDS011;44942;48.936;8.260;2023-12-20T02:49:28;2.33;;;1.60;;
59161;SDS011;44942;48.936;8.260;2023-12-20T02:54:28;3.50;;;1.53;;
59161;SDS011;44942;48.936;8.260;2023-12-20T02:59:29;1.80;;;1.50;;
59161;SDS011;44942;48.936;8.260;2023-12-20T03:04:29;2.17;;;1.70;;
59161;SDS011;44942;48.936;8.260;2023-12-20T03:09:30;3.33;;;1.50;;
59161;SDS011;44942;48.936;8.260;2023-12-20T03:14:30;1.70;;;1.60;;
59161;SDS011;44942;48.936;8.260;2023-12-20T03:19:31;1.80;;;1.40;;
59161;SDS011;44942;48.936;8.260;2023-12-20T03:24:32;1.47;;;1.33;;
59161;SDS011;44942;48.936;8.260;2023-12-20T03:29:32;1.87;;;1.47;;
59161;SDS011;44942;48.936;8.260;2023-12-20T03:34:33;1.90;;;1.53;;
59161;SDS011;44942;48.936;8.260;2023-12-20T03:39:34;1.47;;;1.30;;
59161;SDS011;44942;48.936;8.260;2023-12-20T03:44:37;1.50;;;1.30;;
59161;SDS011;44942;48.936;8.260;2023-12-20T03:49:39;1.83;;;1.50;;
59161;SDS011;44942;48.936;8.260;2023-12-20T03:54:39;1.63;;;1.20;;
59161;SDS011;44942;48.936;8.260;2023-12-20T03:59:42;1.80;;;1.20;;
59161;SDS011;44942;48.936;8.260;2023-12-20T04:04:43;1.48;;;1.38;;
59161;SDS011;44942;48.936;8.260;2023-12-20T04:09:43;1.30;;;1.20;;
59161;SDS011;44942;48.936;8.260;2023-12-20T04:14:44;2.37;;;1.00;;
59161;SDS011;44942;48.936;8.260;2023-12-20T04:19:44;1.50;;;1.30;;
59161;SDS011;44942;48.936;8.260;2023-12-20T04:24:45;1.27;;;1.17;;
59161;SDS011;44942;48.936;8.260;2023-12-20T04:29:46;1.40;;;1.30;;
59161;SDS011;44942;48.936;8.260;2023-12-20T04:34:46;1.40;;;1.30;;
59161;SDS011;44942;48.936;8.260;2023-12-20T04:39:47;3.90;;;1.40;;
59161;SDS011;44942;48.936;8.260;2023-12-20T04:44:47;1.20;;;1.10;;
59161;SDS011;44942;48.936;8.260;2023-12-20T04:49:48;1.90;;;1.00;;
59161;SDS011;44942;48.936;8.260;2023-12-20T04:54:48;1.70;;;1.20;;
59161;SDS011;44942;48.936;8.260;2023-12-20T04:59:49;1.20;;;0.90;;
59161;SDS011;44942;48.936;8.260;2023-12-20T05:04:50;1.10;;;1.00;;
59161;SDS011;44942;48.936;8.260;2023-12-20T05:09:50;1.30;;;1.20;;
59161;SDS011;44942;48.936;8.260;2023-12-20T05:14:51;1.20;;;1.10;;
59161;SDS011;44942;48.936;8.260;2023-12-20T05:24:53;7.83;;;1.17;;
59161;SDS011;44942;48.936;8.260;2023-12-20T05:29:53;58.78;;;4.60;;
59161;SDS011;44942;48.936;8.260;2023-12-20T05:34:57;43.58;;;4.80;;
59161;SDS011;44942;48.936;8.260;2023-12-20T05:39:58;37.80;;;3.70;;
59161;SDS011;44942;48.936;8.260;2023-12-20T05:44:58;51.55;;;4.25;;
59161;SDS011;44942;48.936;8.260;2023-12-20T05:49:59;59.57;;;5.97;;
59161;SDS011;44942;48.936;8.260;2023-12-20T05:54:59;86.97;;;7.17;;
59161;SDS011;44942;48.936;8.260;2023-12-20T06:00:03;79.85;;;6.47;;
59161;SDS011;44942;48.936;8.260;2023-12-20T06:05:04;91.60;;;8.48;;
59161;SDS011;44942;48.936;8.260;2023-12-20T06:15:06;139.97;;;14.73;;
59161;SDS011;44942;48.936;8.260;2023-12-20T06:20:07;114.10;;;14.35;;
59161;SDS011;44942;48.936;8.260;2023-12-20T06:30:09;163.90;;;17.97;;
59161;SDS011;44942;48.936;8.260;2023-12-20T06:35:10;158.05;;;19.45;;
59161;SDS011;44942;48.936;8.260;2023-12-20T06:40:10;142.20;;;18.53;;
59161;SDS011;44942;48.936;8.260;2023-12-20T06:50:12;145.10;;;17.40;;
59161;SDS011;44942;48.936;8.260;2023-12-20T06:55:13;138.47;;;16.03;;
59161;SDS011;44942;48.936;8.260;2023-12-20T07:00:13;124.47;;;16.60;;
59161;SDS011;44942;48.936;8.260;2023-12-20T07:05:16;104.03;;;14.70;;
59161;SDS011;44942;48.936;8.260;2023-12-20T07:10:19;114.10;;;13.77;;
59161;SDS011;44942;48.936;8.260;2023-12-20T07:15:20;87.37;;;12.60;;
59161;SDS011;44942;48.936;8.260;2023-12-20T07:20:22;74.95;;;11.70;;
59161;SDS011;44942;48.936;8.260;2023-12-20T07:25:22;75.97;;;10.73;;
59161;SDS011;44942;48.936;8.260;2023-12-20T07:30:23;64.10;;;9.87;;
59161;SDS011;44942;48.936;8.260;2023-12-20T07:35:23;68.23;;;9.80;;
59161;SDS011;44942;48.936;8.260;2023-12-20T07:40:25;59.20;;;10.10;;
59161;SDS011;44942;48.936;8.260;2023-12-20T07:45:25;51.27;;;8.87;;
59161;SDS011;44942;48.936;8.260;2023-12-20T07:50:26;56.77;;;9.17;;
59161;SDS011;44942;48.936;8.260;2023-12-20T07:55:27;46.38;;;8.18;;
59161;SDS011;44942;48.936;8.260;2023-12-20T08:00:28;45.80;;;8.57;;
59161;SDS011;44942;48.936;8.260;2023-12-20T08:05:28;40.07;;;7.97;;
59161;SDS011;44942;48.936;8.260;2023-12-20T08:10:29;37.67;;;7.97;;
59161;SDS011;44942;48.936;8.260;2023-12-20T08:15:30;32.00;;;6.80;;
59161;SDS011;44942;48.936;8.260;2023-12-20T08:20:30;31.77;;;7.40;;
59161;SDS011;44942;48.936;8.260;2023-12-20T08:25:31;32.13;;;6.73;;
59161;SDS011;44942;48.936;8.260;2023-12-20T08:30:31;38.47;;;6.93;;
59161;SDS011;44942;48.936;8.260;2023-12-20T08:35:32;28.17;;;6.35;;
59161;SDS011;44942;48.936;8.260;2023-12-20T08:40:33;21.87;;;5.43;;
59161;SDS011;44942;48.936;8.260;2023-12-20T08:45:33;20.03;;;5.07;;
59161;SDS011;44942;48.936;8.260;2023-12-20T08:50:34;18.55;;;4.80;;
59161;SDS011;44942;48.936;8.260;2023-12-20T08:55:35;18.33;;;4.20;;
59161;SDS011;44942;48.936;8.260;2023-12-20T09:00:35;17.73;;;4.13;;
59161;SDS011;44942;48.936;8.260;2023-12-20T09:05:36;12.47;;;4.07;;
59161;SDS011;44942;48.936;8.260;2023-12-20T09:10:37;17.30;;;3.70;;
59161;SDS011;44942;48.936;8.260;2023-12-20T09:15:37;10.60;;;3.53;;
59161;SDS011;44942;48.936;8.260;2023-12-20T09:20:38;11.80;;;3.43;;
59161;SDS011;44942;48.936;8.260;2023-12-20T09:25:38;13.60;;;3.50;;
59161;SDS011;44942;48.936;8.260;2023-12-20T09:30:39;15.97;;;3.93;;
59161;SDS011;44942;48.936;8.260;2023-12-20T09:35:40;12.70;;;4.10;;
59161;SDS011;44942;48.936;8.260;2023-12-20T09:40:41;11.60;;;3.40;;
59161;SDS011;44942;48.936;8.260;2023-12-20T09:45:43;11.05;;;3.63;;
59161;SDS011;44942;48.936;8.260;2023-12-20T09:50:46;13.57;;;3.78;;
59161;SDS011;44942;48.936;8.260;2023-12-20T09:55:47;10.23;;;3.10;;
59161;SDS011;44942;48.936;8.260;2023-12-20T10:00:49;10.77;;;2.92;;
59161;SDS011;44942;48.936;8.260;2023-12-20T10:05:52;11.35;;;2.88;;
59161;SDS011;44942;48.936;8.260;2023-12-20T10:10:54;9.85;;;3.20;;
59161;SDS011;44942;48.936;8.260;2023-12-20T10:15:55;19.55;;;7.18;;
59161;SDS011;44942;48.936;8.260;2023-12-20T10:20:57;24.88;;;9.82;;
59161;SDS011;44942;48.936;8.260;2023-12-20T10:25:58;26.73;;;11.10;;
59161;SDS011;44942;48.936;8.260;2023-12-20T10:30:59;30.50;;;13.07;;
59161;SDS011;44942;48.936;8.260;2023-12-20T10:36:00;31.63;;;13.75;;
59161;SDS011;44942;48.936;8.260;2023-12-20T10:41:01;30.83;;;13.53;;
59161;SDS011;44942;48.936;8.260;2023-12-20T10:46:04;28.27;;;13.10;;
59161;SDS011;44942;48.936;8.260;2023-12-20T10:56:06;28.70;;;12.27;;
59161;SDS011;44942;48.936;8.260;2023-12-20T11:01:15;26.73;;;11.45;;
59161;SDS011;44942;48.936;8.260;2023-12-20T11:12:08;24.35;;;10.18;;
59161;SDS011;44942;48.936;8.260;2023-12-20T11:17:12;22.58;;;9.30;;
59161;SDS011;44942;48.936;8.260;2023-12-20T11:22:14;21.60;;;10.20;;
59161;SDS011;44942;48.936;8.260;2023-12-20T11:27:14;19.25;;;9.38;;
59161;SDS011;44942;48.936;8.260;2023-12-20T11:37:37;26.08;;;8.40;;
59161;SDS011;44942;48.936;8.260;2023-12-20T11:42:46;19.65;;;7.78;;
59161;SDS011;44942;48.936;8.260;2023-12-20T11:47:50;18.00;;;7.38;;
59161;SDS011;44942;48.936;8.260;2023-12-20T11:52:52;18.92;;;6.78;;
59161;SDS011;44942;48.936;8.260;2023-12-20T11:57:53;15.75;;;6.60;;
59161;SDS011;44942;48.936;8.260;2023-12-20T12:02:55;18.08;;;6.68;;
59161;SDS011;44942;48.936;8.260;2023-12-20T12:07:56;15.77;;;6.63;;
59161;SDS011;44942;48.936;8.260;2023-12-20T12:12:57;13.33;;;5.90;;
59161;SDS011;44942;48.936;8.260;2023-12-20T12:17:58;15.60;;;5.67;;
59161;SDS011;44942;48.936;8.260;2023-12-20T12:23:03;14.23;;;5.75;;
59161;SDS011;44942;48.936;8.260;2023-12-20T12:28:04;12.38;;;5.63;;
59161;SDS011;44942;48.936;8.260;2023-12-20T12:33:05;13.27;;;5.35;;
59161;SDS011;44942;48.936;8.260;2023-12-20T12:38:06;15.02;;;5.35;;
59161;SDS011;44942;48.936;8.260;2023-12-20T12:43:08;14.95;;;5.20;;
59161;SDS011;44942;48.936;8.260;2023-12-20T12:48:09;11.13;;;4.97;;
59161;SDS011;44942;48.936;8.260;2023-12-20T12:53:10;13.20;;;4.72;;
59161;SDS011;44942;48.936;8.260;2023-12-20T12:58:11;12.40;;;5.00;;
59161;SDS011;44942;48.936;8.260;2023-12-20T13:03:11;10.55;;;4.85;;
59161;SDS011;44942;48.936;8.260;2023-12-20T13:08:12;10.67;;;4.43;;
59161;SDS011;44942;48.936;8.260;2023-12-20T13:13:13;9.07;;;4.40;;
59161;SDS011;44942;48.936;8.260;2023-12-20T13:18:14;7.60;;;4.07;;
59161;SDS011;44942;48.936;8.260;2023-12-20T13:23:14;7.83;;;3.97;;
59161;SDS011;44942;48.936;8.260;2023-12-20T13:28:15;21.17;;;4.57;;
59161;SDS011;44942;48.936;8.260;2023-12-20T13:33:16;16.83;;;4.27;;
59161;SDS011;44942;48.936;8.260;2023-12-20T13:38:17;14.90;;;3.87;;
59161;SDS011;44942;48.936;8.260;2023-12-20T13:43:17;9.30;;;3.40;;
59161;SDS011;44942;48.936;8.260;2023-12-20T13:48:20;9.32;;;3.45;;
59161;SDS011;44942;48.936;8.260;2023-12-20T13:53:21;10.00;;;3.23;;
59161;SDS011;44942;48.936;8.260;2023-12-20T13:58:22;14.40;;;3.93;;
59161;SDS011;44942;48.936;8.260;2023-12-20T14:03:22;7.53;;;3.40;;
59161;SDS011;44942;48.936;8.260;2023-12-20T14:08:23;6.93;;;3.13;;
59161;SDS011;44942;48.936;8.260;2023-12-20T14:13:24;9.63;;;3.30;;
59161;SDS011;44942;48.936;8.260;2023-12-20T14:18:24;6.70;;;3.43;;
59161;SDS011;44942;48.936;8.260;2023-12-20T14:23:25;12.57;;;4.80;;
59161;SDS011;44942;48.936;8.260;2023-12-20T14:28:25;12.33;;;4.70;;
59161;SDS011;44942;48.936;8.260;2023-12-20T14:33:26;10.63;;;6.20;;
59161;SDS011;44942;48.936;8.260;2023-12-20T14:38:26;13.90;;;7.60;;
59161;SDS011;44942;48.936;8.260;2023-12-20T14:43:27;16.70;;;8.83;;
59161;SDS011;44942;48.936;8.260;2023-12-20T14:48:28;15.93;;;8.63;;
59161;SDS011;44942;48.936;8.260;2023-12-20T14:53:28;17.25;;;9.65;;
59161;SDS011;44942;48.936;8.260;2023-12-20T14:58:29;16.57;;;10.17;;
59161;SDS011;44942;48.936;8.260;2023-12-20T15:03:30;22.07;;;10.97;;
59161;SDS011;44942;48.936;8.260;2023-12-20T15:08:30;20.97;;;11.07;;
59161;SDS011;44942;48.936;8.260;2023-12-20T15:13:31;21.20;;;10.13;;
59161;SDS011;44942;48.936;8.260;2023-12-20T15:23:33;17.13;;;10.63;;
59161;SDS011;44942;48.936;8.260;2023-12-20T15:28:36;18.20;;;10.10;;
59161;SDS011;44942;48.936;8.260;2023-12-20T15:33:37;18.63;;;10.23;;
59161;SDS011;44942;48.936;8.260;2023-12-20T15:38:38;15.87;;;9.43;;
59161;SDS011;44942;48.936;8.260;2023-12-20T15:43:38;17.13;;;9.37;;
59161;SDS011;44942;48.936;8.260;2023-12-20T15:48:39;15.43;;;8.73;;
59161;SDS011;44942;48.936;8.260;2023-12-20T15:53:39;18.70;;;9.03;;
59161;SDS011;44942;48.936;8.260;2023-12-20T15:58:40;19.13;;;8.82;;
59161;SDS011;44942;48.936;8.260;2023-12-20T16:03:41;15.23;;;8.27;;
59161;SDS011;44942;48.936;8.260;2023-12-20T16:08:42;16.77;;;8.30;;
59161;SDS011;44942;48.936;8.260;2023-12-20T16:13:43;14.60;;;7.85;;
59161;SDS011;44942;48.936;8.260;2023-12-20T16:18:44;13.25;;;7.75;;
59161;SDS011;44942;48.936;8.260;2023-12-20T16:23:45;12.20;;;7.20;;
59161;SDS011;44942;48.936;8.260;2023-12-20T16:28:45;13.53;;;7.17;;
59161;SDS011;44942;48.936;8.260;2023-12-20T16:33:46;10.77;;;7.00;;
59161;SDS011;44942;48.936;8.260;2023-12-20T16:38:47;12.13;;;7.13;;
59161;SDS011;44942;48.936;8.260;2023-12-20T16:43:47;11.83;;;6.97;;
59161;SDS011;44942;48.936;8.260;2023-12-20T16:48:49;11.00;;;6.22;;
59161;SDS011;44942;48.936;8.260;2023-12-20T16:53:49;11.60;;;5.87;;
59161;SDS011;44942;48.936;8.260;2023-12-20T16:58:50;13.17;;;6.20;;
59161;SDS011;44942;48.936;8.260;2023-12-20T17:03:51;10.53;;;6.07;;
59161;SDS011;44942;48.936;8.260;2023-12-20T17:08:53;10.30;;;5.55;;
59161;SDS011;44942;48.936;8.260;2023-12-20T17:13:53;9.90;;;5.43;;
59161;SDS011;44942;48.936;8.260;2023-12-20T17:18:54;9.50;;;5.57;;
59161;SDS011;44942;48.936;8.260;2023-12-20T17:23:55;8.90;;;5.47;;
59161;SDS011;44942;48.936;8.260;2023-12-20T17:28:55;7.67;;;4.67;;
59161;SDS011;44942;48.936;8.260;2023-12-20T17:33:56;8.20;;;4.90;;
59161;SDS011;44942;48.936;8.260;2023-12-20T17:38:56;8.03;;;5.13;;
59161;SDS011;44942;48.936;8.260;2023-12-20T17:43:57;7.80;;;4.53;;
59161;SDS011;44942;48.936;8.260;2023-12-20T17:48:58;8.70;;;4.30;;
59161;SDS011;44942;48.936;8.260;2023-12-20T17:54:00;7.78;;;4.60;;
59161;SDS011;44942;48.936;8.260;2023-12-20T17:59:03;6.72;;;4.40;;
59161;SDS011;44942;48.936;8.260;2023-12-20T18:04:03;199.33;;;13.27;;
59161;SDS011;44942;48.936;8.260;2023-12-20T18:09:04;29.53;;;5.77;;
59161;SDS011;44942;48.936;8.260;2023-12-20T18:14:04;14.47;;;4.90;;
59161;SDS011;44942;48.936;8.260;2023-12-20T18:19:05;12.98;;;4.40;;
59161;SDS011;44942;48.936;8.260;2023-12-20T18:24:06;12.95;;;4.50;;
59161;SDS011;44942;48.936;8.260;2023-12-20T18:29:07;18.33;;;4.67;;
59161;SDS011;44942;48.936;8.260;2023-12-20T18:34:07;13.33;;;4.37;;
59161;SDS011;44942;48.936;8.260;2023-12-20T18:39:08;13.90;;;4.33;;
59161;SDS011;44942;48.936;8.260;2023-12-20T18:44:09;14.70;;;3.90;;
59161;SDS011;44942;48.936;8.260;2023-12-20T18:49:09;7.23;;;3.43;;
59161;SDS011;44942;48.936;8.260;2023-12-20T18:54:10;8.77;;;3.45;;
59161;SDS011;44942;48.936;8.260;2023-12-20T18:59:11;7.67;;;3.00;;
59161;SDS011;44942;48.936;8.260;2023-12-20T19:04:13;6.65;;;3.15;;
59161;SDS011;44942;48.936;8.260;2023-12-20T19:09:13;6.93;;;3.17;;
59161;SDS011;44942;48.936;8.260;2023-12-20T19:14:16;4.85;;;2.90;;
59161;SDS011;44942;48.936;8.260;2023-12-20T19:19:16;7.25;;;3.03;;
59161;SDS011;44942;48.936;8.260;2023-12-20T19:24:17;6.43;;;2.53;;
59161;SDS011;44942;48.936;8.260;2023-12-20T19:29:18;5.00;;;2.80;;
59161;SDS011;44942;48.936;8.260;2023-12-20T19:34:18;4.67;;;2.40;;
59161;SDS011;44942;48.936;8.260;2023-12-20T19:39:19;3.92;;;2.50;;
59161;SDS011;44942;48.936;8.260;2023-12-20T19:44:20;5.10;;;2.40;;
59161;SDS011;44942;48.936;8.260;2023-12-20T19:54:22;4.97;;;2.23;;
59161;SDS011;44942;48.936;8.260;2023-12-20T19:59:22;3.90;;;2.20;;
59161;SDS011;44942;48.936;8.260;2023-12-20T20:04:23;2.77;;;1.80;;
59161;SDS011;44942;48.936;8.260;2023-12-20T20:09:24;5.20;;;2.30;;
59161;SDS011;44942;48.936;8.260;2023-12-20T20:14:24;3.80;;;2.30;;
59161;SDS011;44942;48.936;8.260;2023-12-20T20:19:27;4.90;;;2.00;;
59161;SDS011;44942;48.936;8.260;2023-12-20T20:29:29;3.20;;;2.03;;
59161;SDS011;44942;48.936;8.260;2023-12-20T20:34:29;4.13;;;2.10;;
59161;SDS011;44942;48.936;8.260;2023-12-20T20:39:30;3.00;;;1.83;;
59161;SDS011;44942;48.936;8.260;2023-12-20T20:44:31;3.07;;;1.80;;
59161;SDS011;44942;48.936;8.260;2023-12-20T20:49:31;2.83;;;1.90;;
59161;SDS011;44942;48.936;8.260;2023-12-20T20:54:32;3.90;;;1.63;;
59161;SDS011;44942;48.936;8.260;2023-12-20T20:59:32;4.87;;;2.00;;
59161;SDS011;44942;48.936;8.260;2023-12-20T21:04:33;3.33;;;1.90;;
59161;SDS011;44942;48.936;8.260;2023-12-20T21:09:33;3.23;;;1.70;;
59161;SDS011;44942;48.936;8.260;2023-12-20T21:14:34;3.07;;;2.07;;
59161;SDS011;44942;48.936;8.260;2023-12-20T21:19:35;3.03;;;1.70;;
59161;SDS011;44942;48.936;8.260;2023-12-20T21:24:35;1.77;;;1.40;;
59161;SDS011;44942;48.936;8.260;2023-12-20T21:29:36;3.60;;;1.97;;
59161;SDS011;44942;48.936;8.260;2023-12-20T21:34:37;2.38;;;1.70;;
59161;SDS011;44942;48.936;8.260;2023-12-20T21:39:38;2.93;;;1.73;;
59161;SDS011;44942;48.936;8.260;2023-12-20T21:44:38;3.25;;;1.80;;
59161;SDS011;44942;48.936;8.260;2023-12-20T21:49:39;1.67;;;1.20;;
59161;SDS011;44942;48.936;8.260;2023-12-20T21:54:40;2.63;;;1.23;;
59161;SDS011;44942;48.936;8.260;2023-12-20T21:59:40;1.93;;;1.37;;
59161;SDS011;44942;48.936;8.260;2023-12-20T22:04:41;1.80;;;1.40;;
59161;SDS011;44942;48.936;8.260;2023-12-20T22:09:41;1.77;;;1.20;;
59161;SDS011;44942;48.936;8.260;2023-12-20T22:14:42;2.53;;;1.33;;
59161;SDS011;44942;48.936;8.260;2023-12-20T22:19:43;2.20;;;1.50;;
59161;SDS011;44942;48.936;8.260;2023-12-20T22:24:43;2.67;;;1.50;;
59161;SDS011;44942;48.936;8.260;2023-12-20T22:29:44;3.90;;;1.43;;
59161;SDS011;44942;48.936;8.260;2023-12-20T22:34:46;1.77;;;1.15;;
59161;SDS011;44942;48.936;8.260;2023-12-20T22:39:46;1.63;;;1.27;;
59161;SDS011;44942;48.936;8.260;2023-12-20T22:44:47;1.88;;;1.30;;
59161;SDS011;44942;48.936;8.260;2023-12-20T22:49:54;1.85;;;1.05;;
59161;SDS011;44942;48.936;8.260;2023-12-20T22:54:55;2.43;;;1.30;;
59161;SDS011;44942;48.936;8.260;2023-12-20T22:59:55;1.83;;;1.10;;
59161;SDS011;44942;48.936;8.260;2023-12-20T23:04:56;1.63;;;1.20;;
59161;SDS011;44942;48.936;8.260;2023-12-20T23:09:56;2.83;;;1.33;;
59161;SDS011;44942;48.936;8.260;2023-12-20T23:14:57;1.60;;;0.90;;
59161;SDS011;44942;48.936;8.260;2023-12-20T23:19:58;1.37;;;1.20;;
59161;SDS011;44942;48.936;8.260;2023-12-20T23:24:59;2.50;;;1.37;;
59161;SDS011;44942;48.936;8.260;2023-12-20T23:30:00;1.85;;;1.13;;
59161;SDS011;44942;48.936;8.260;2023-12-20T23:35:01;2.53;;;1.30;;
59161;SDS011;44942;48.936;8.260;2023-12-20T23:40:01;1.37;;;1.00;;
59161;SDS011;44942;48.936;8.260;2023-12-20T23:45:03;1.80;;;1.20;;
59161;SDS011;44942;48.936;8.260;2023-12-20T23:50:04;1.30;;;1.10;;
59161;SDS011;44942;48.936;8.260;2023-12-20T23:55:06;1.17;;;0.93;;
